createdAt,value
2023-05-21T00:01:34.232Z,19.18
2023-05-21T00:04:02.012Z,19.19
2023-05-21T00:06:30.399Z,19.47
2023-05-21T00:08:58.260Z,19.16
2023-05-21T00:11:26.123Z,19.42
2023-05-21T00:13:53.942Z,18.99
2023-05-21T00:16:23.258Z,19.78
2023-05-21T00:18:51.364Z,19.57
2023-05-21T00:21:22.705Z,19.35
2023-05-21T00:23:50.814Z,19.41
2023-05-21T00:26:18.586Z,19.61
2023-05-21T00:28:47.517Z,19.45
2023-05-21T00:31:16.035Z,19.31
2023-05-21T00:33:45.462Z,19.64
2023-05-21T00:36:14.292Z,19.67
2023-05-21T00:38:44.042Z,20.19
2023-05-21T00:41:12.226Z,19.95
2023-05-21T00:43:40.687Z,20.05
2023-05-21T00:46:09.123Z,19.40
2023-05-21T00:48:37.025Z,19.65
2023-05-21T00:51:07.234Z,19.80
2023-05-21T00:53:35.638Z,19.60
2023-05-21T00:56:04.310Z,19.86
2023-05-21T00:58:33.616Z,19.23
2023-05-21T01:01:03.587Z,19.30
2023-05-21T01:03:38.549Z,19.31
2023-05-21T01:06:10.405Z,19.13
2023-05-21T01:08:40.868Z,19.18
2023-05-21T01:11:10.540Z,19.46
2023-05-21T01:13:40.987Z,19.47
2023-05-21T01:16:09.984Z,19.34
2023-05-21T01:18:38.619Z,19.50
2023-05-21T01:21:09.748Z,19.68
2023-05-21T01:23:39.259Z,19.40
2023-05-21T01:26:07.328Z,19.18
2023-05-21T01:28:35.446Z,19.44
2023-05-21T01:31:13.418Z,19.78
2023-05-21T01:33:50.825Z,19.34
2023-05-21T01:36:26.259Z,19.73
2023-05-21T01:39:01.896Z,19.85
2023-05-21T01:41:34.149Z,19.12
2023-05-21T01:44:04.508Z,18.79
2023-05-21T01:46:35.928Z,19.03
2023-05-21T01:49:05.794Z,19.27
2023-05-21T01:51:34.335Z,19.40
2023-05-21T01:54:04.256Z,19.13
2023-05-21T01:56:34.028Z,19.48
2023-05-21T01:59:02.077Z,18.92
2023-05-21T02:01:30.628Z,19.17
2023-05-21T02:03:59.328Z,19.49
2023-05-21T02:06:27.310Z,19.40
2023-05-21T02:08:55.617Z,19.36
2023-05-21T02:11:25.052Z,19.07
2023-05-21T02:13:52.949Z,18.75
2023-05-21T02:16:22.482Z,18.81
2023-05-21T02:18:52.245Z,18.81
2023-05-21T02:21:20.740Z,19.32
2023-05-21T02:23:48.660Z,19.37
2023-05-21T02:26:17.422Z,19.52
2023-05-21T02:28:46.537Z,19.73
2023-05-21T02:31:14.853Z,18.79
2023-05-21T02:33:43.195Z,18.65
2023-05-21T02:36:13.270Z,18.99
2023-05-21T02:38:43.448Z,18.92
2023-05-21T02:41:11.909Z,19.30
2023-05-21T02:43:39.683Z,19.57
2023-05-21T02:46:09.325Z,19.00
2023-05-21T02:48:37.266Z,19.21
2023-05-21T02:51:06.265Z,18.86
2023-05-21T02:53:34.110Z,18.03
2023-05-21T02:56:01.848Z,18.14
2023-05-21T02:58:29.709Z,18.34
2023-05-21T03:00:57.740Z,18.42
2023-05-21T03:03:27.471Z,18.53
2023-05-21T03:05:55.350Z,18.60
2023-05-21T03:08:23.297Z,18.80
2023-05-21T03:10:51.358Z,18.77
2023-05-21T03:13:19.141Z,18.43
2023-05-21T03:15:47.368Z,18.57
2023-05-21T03:18:15.161Z,18.39
2023-05-21T03:20:45.361Z,17.78
2023-05-21T03:23:16.504Z,17.75
2023-05-21T03:25:45.986Z,17.96
2023-05-21T03:28:14.327Z,18.19
2023-05-21T03:30:46.723Z,18.26
2023-05-21T03:33:42.005Z,18.26
2023-05-21T03:36:25.098Z,18.28
2023-05-21T03:38:53.284Z,18.09
2023-05-21T03:41:22.035Z,17.60
2023-05-21T03:43:54.655Z,17.66
2023-05-21T03:46:26.727Z,17.72
2023-05-21T03:49:05.873Z,18.04
2023-05-21T03:51:38.276Z,17.53
2023-05-21T03:54:06.269Z,17.89
2023-05-21T03:56:36.133Z,18.07
2023-05-21T03:59:03.947Z,18.45
2023-05-21T04:01:33.986Z,18.53
2023-05-21T04:04:02.784Z,18.05
2023-05-21T04:06:31.105Z,17.91
2023-05-21T04:09:01.100Z,17.05
2023-05-21T04:11:28.952Z,17.12
2023-05-21T04:13:56.760Z,17.71
2023-05-21T04:16:24.798Z,17.81
2023-05-21T04:18:55.399Z,17.73
2023-05-21T04:21:24.906Z,17.33
2023-05-21T04:23:53.987Z,17.08
2023-05-21T04:26:33.859Z,17.14
2023-05-21T04:29:03.017Z,17.42
2023-05-21T04:31:31.298Z,17.15
2023-05-21T04:33:59.856Z,17.46
2023-05-21T04:36:28.992Z,16.76
2023-05-21T04:38:57.336Z,16.55
2023-05-21T04:41:25.296Z,17.43
2023-05-21T04:43:55.394Z,17.85
2023-05-21T04:46:26.997Z,17.78
2023-05-21T04:48:55.936Z,17.78
2023-05-21T04:51:24.723Z,18.00
2023-05-21T04:53:53.938Z,18.36
2023-05-21T04:56:22.853Z,17.97
2023-05-21T04:58:50.821Z,18.46
2023-05-21T05:01:20.033Z,18.08
2023-05-21T05:03:48.029Z,18.23
2023-05-21T05:06:15.921Z,18.55
2023-05-21T05:08:43.787Z,18.82
2023-05-21T05:11:11.876Z,18.98
2023-05-21T05:13:41.285Z,19.15
2023-05-21T05:16:09.749Z,19.12
2023-05-21T05:18:39.031Z,19.30
2023-05-21T05:21:06.943Z,19.34
2023-05-21T05:23:34.740Z,19.10
2023-05-21T05:26:02.725Z,18.95
2023-05-21T05:28:30.509Z,19.05
2023-05-21T05:30:58.298Z,18.81
2023-05-21T05:33:27.444Z,17.79
2023-05-21T05:35:56.768Z,18.17
2023-05-21T05:38:24.557Z,18.51
2023-05-21T05:40:52.331Z,18.49
2023-05-21T05:43:20.192Z,18.21
2023-05-21T05:45:48.293Z,18.70
2023-05-21T05:48:16.843Z,18.87
2023-05-21T05:50:45.133Z,19.14
2023-05-21T05:53:14.693Z,18.85
2023-05-21T05:55:42.546Z,18.75
2023-05-21T05:58:10.568Z,19.38
2023-05-21T06:00:51.250Z,19.22
2023-05-21T06:03:19.240Z,19.11
2023-05-21T06:05:47.377Z,19.09
2023-05-21T06:08:16.935Z,19.19
2023-05-21T06:10:46.899Z,19.09
2023-05-21T06:13:15.918Z,19.07
2023-05-21T06:15:44.491Z,19.26
2023-05-21T06:18:12.354Z,19.40
2023-05-21T06:20:40.198Z,19.37
2023-05-21T06:23:08.959Z,18.55
2023-05-21T06:25:40.565Z,18.76
2023-05-21T06:28:09.392Z,18.48
2023-05-21T06:30:37.226Z,18.56
2023-05-21T06:33:05.147Z,19.06
2023-05-21T06:35:34.946Z,18.20
2023-05-21T06:38:02.904Z,18.76
2023-05-21T06:40:30.698Z,19.51
2023-05-21T06:43:01.647Z,19.05
2023-05-21T06:45:48.484Z,19.63
2023-05-21T06:48:28.953Z,20.03
2023-05-21T06:50:56.880Z,20.06
2023-05-21T06:53:24.633Z,20.50
2023-05-21T06:55:54.128Z,20.76
2023-05-21T06:58:43.612Z,19.97
2023-05-21T07:01:12.234Z,20.67
2023-05-21T07:03:40.273Z,20.45
2023-05-21T07:06:09.441Z,20.72
2023-05-21T07:08:37.196Z,21.10
2023-05-21T07:11:05.079Z,20.52
2023-05-21T07:13:33.082Z,20.60
2023-05-21T07:16:02.266Z,21.43
2023-05-21T07:18:30.549Z,20.54
2023-05-21T07:20:58.463Z,21.66
2023-05-21T07:23:28.248Z,21.84
2023-05-21T07:25:56.137Z,21.90
2023-05-21T07:28:24.026Z,21.90
2023-05-21T07:30:51.935Z,22.60
2023-05-21T07:33:25.535Z,22.77
2023-05-21T07:35:53.631Z,22.20
2023-05-21T07:38:21.451Z,22.38
2023-05-21T07:40:49.619Z,22.60
2023-05-21T07:43:17.377Z,23.01
2023-05-21T07:45:45.427Z,22.11
2023-05-21T07:48:13.810Z,22.01
2023-05-21T07:50:53.555Z,22.49
2023-05-21T07:53:21.729Z,23.07
2023-05-21T07:55:50.423Z,23.84
2023-05-21T07:58:23.441Z,24.08
2023-05-21T08:00:51.406Z,23.71
2023-05-21T08:03:19.784Z,23.03
2023-05-21T08:05:49.899Z,22.87
2023-05-21T08:08:21.999Z,24.07
2023-05-21T08:10:51.311Z,24.30
2023-05-21T08:13:19.688Z,24.29
2023-05-21T08:15:52.068Z,24.71
2023-05-21T08:18:23.722Z,25.05
2023-05-21T08:20:52.388Z,24.88
2023-05-21T08:23:22.796Z,24.92
2023-05-21T08:25:54.537Z,25.62
2023-05-21T08:28:24.007Z,25.29
2023-05-21T08:30:53.060Z,25.76
2023-05-21T08:33:23.021Z,26.03
2023-05-21T08:35:50.838Z,25.67
2023-05-21T08:38:31.273Z,25.40
2023-05-21T08:41:23.263Z,25.65
2023-05-21T08:43:56.625Z,26.28
2023-05-21T08:46:25.724Z,26.32
2023-05-21T08:48:54.988Z,26.87
2023-05-21T08:51:23.726Z,26.73
2023-05-21T08:53:55.847Z,26.96
2023-05-21T08:56:24.785Z,27.36
2023-05-21T08:58:59.720Z,27.29
2023-05-21T09:01:34.115Z,27.63
2023-05-21T09:04:20.331Z,26.96
2023-05-21T09:06:51.251Z,27.92
2023-05-21T09:09:34.731Z,28.17
2023-05-21T09:12:02.918Z,27.67
2023-05-21T09:14:31.915Z,28.62
2023-05-21T09:17:20.833Z,29.00
2023-05-21T09:20:10.820Z,29.15
2023-05-21T09:22:41.619Z,29.65
2023-05-21T09:25:12.684Z,28.76
2023-05-21T09:27:41.183Z,27.95
2023-05-21T09:30:12.259Z,27.72
2023-05-21T09:32:40.609Z,28.28
2023-05-21T09:35:10.125Z,27.13
2023-05-21T09:37:43.911Z,28.94
2023-05-21T09:40:15.266Z,29.66
2023-05-21T09:42:47.489Z,28.03
2023-05-21T09:45:19.628Z,28.90
2023-05-21T09:47:48.352Z,27.55
2023-05-21T09:50:20.168Z,26.98
2023-05-21T09:52:50.168Z,28.62
2023-05-21T09:55:22.969Z,27.30
2023-05-21T09:57:51.460Z,28.55
2023-05-21T10:00:21.230Z,29.32
2023-05-21T10:02:50.301Z,27.11
2023-05-21T10:05:18.692Z,28.95
2023-05-21T10:07:51.313Z,28.99
2023-05-21T10:10:22.775Z,29.58
2023-05-21T10:12:59.836Z,30.02
2023-05-21T10:15:29.683Z,29.98
2023-05-21T10:17:57.931Z,30.33
2023-05-21T10:20:26.685Z,29.88
2023-05-21T10:22:55.567Z,31.05
2023-05-21T10:25:26.503Z,30.66
2023-05-21T10:27:56.525Z,30.69
2023-05-21T10:30:25.614Z,30.17
2023-05-21T10:32:55.364Z,30.50
2023-05-21T10:35:24.409Z,31.14
2023-05-21T10:37:53.794Z,30.90
2023-05-21T10:40:21.625Z,31.03
2023-05-21T10:43:12.116Z,29.87
2023-05-21T10:45:56.532Z,31.68
2023-05-21T10:48:36.557Z,32.45
2023-05-21T10:51:22.074Z,32.59
2023-05-21T10:54:17.480Z,33.17
2023-05-21T10:56:51.965Z,34.12
2023-05-21T10:59:36.279Z,34.80
2023-05-21T11:02:07.008Z,31.56
2023-05-21T11:04:39.930Z,33.36
2023-05-21T11:07:08.253Z,34.25
2023-05-21T11:09:36.139Z,35.20
2023-05-21T11:12:04.792Z,34.03
2023-05-21T11:14:39.554Z,34.07
2023-05-21T11:17:13.464Z,34.39
2023-05-21T11:19:42.802Z,35.52
2023-05-21T11:22:21.822Z,34.89
2023-05-21T11:24:51.362Z,34.73
2023-05-21T11:27:32.603Z,35.58
2023-05-21T11:30:05.739Z,36.42
2023-05-21T11:32:33.711Z,36.42
2023-05-21T11:35:02.362Z,32.10
2023-05-21T11:37:35.113Z,29.92
2023-05-21T11:40:20.726Z,31.34
2023-05-21T11:42:52.045Z,33.18
2023-05-21T11:45:22.736Z,33.12
2023-05-21T11:47:51.991Z,32.20
2023-05-21T11:50:20.661Z,33.68
2023-05-21T11:52:50.186Z,35.31
2023-05-21T11:55:23.158Z,34.13
2023-05-21T11:57:55.118Z,34.50
2023-05-21T12:00:24.568Z,32.25
2023-05-21T12:02:55.699Z,34.41
2023-05-21T12:05:24.652Z,34.41
2023-05-21T12:07:54.696Z,33.98
2023-05-21T12:10:23.691Z,32.87
2023-05-21T12:12:56.288Z,33.36
2023-05-21T12:15:27.508Z,33.93
2023-05-21T12:17:56.111Z,33.76
2023-05-21T12:20:24.382Z,33.49
2023-05-21T12:22:52.344Z,32.73
2023-05-21T12:25:21.150Z,32.30
2023-05-21T12:27:52.570Z,31.36
2023-05-21T12:30:21.312Z,32.52
2023-05-21T12:32:50.562Z,34.05
2023-05-21T12:35:22.741Z,34.33
2023-05-21T12:37:51.736Z,32.32
2023-05-21T12:40:20.295Z,32.52
2023-05-21T12:42:48.213Z,33.45
2023-05-21T12:45:18.437Z,31.46
2023-05-21T12:47:55.919Z,32.24
2023-05-21T12:50:24.638Z,32.29
2023-05-21T12:52:55.918Z,32.00
2023-05-21T12:55:25.173Z,32.52
2023-05-21T12:58:03.292Z,32.73
2023-05-21T13:00:31.494Z,33.79
2023-05-21T13:03:01.863Z,33.60
2023-05-21T13:05:29.769Z,34.16
2023-05-21T13:07:57.511Z,34.48
2023-05-21T13:10:25.302Z,33.79
2023-05-21T13:12:53.144Z,33.62
2023-05-21T13:15:21.409Z,32.95
2023-05-21T13:17:50.615Z,32.86
2023-05-21T13:20:21.651Z,32.78
2023-05-21T13:22:52.234Z,32.99
2023-05-21T13:25:21.704Z,32.70
2023-05-21T13:27:51.393Z,33.83
2023-05-21T13:30:19.714Z,33.88
2023-05-21T13:32:48.144Z,34.46
2023-05-21T13:35:16.707Z,34.58
2023-05-21T13:37:46.337Z,33.19
2023-05-21T13:40:15.988Z,33.73
2023-05-21T13:42:45.101Z,34.40
2023-05-21T13:45:15.661Z,34.14
2023-05-21T13:47:45.080Z,34.39
2023-05-21T13:50:13.295Z,34.66
2023-05-21T13:52:41.114Z,34.46
2023-05-21T13:55:11.344Z,34.75
2023-05-21T13:57:40.534Z,35.25
2023-05-21T14:00:12.532Z,33.81
2023-05-21T14:02:40.441Z,34.58
2023-05-21T14:05:08.913Z,34.66
2023-05-21T14:07:36.762Z,33.93
2023-05-21T14:10:04.982Z,34.24
2023-05-21T14:12:34.634Z,33.21
2023-05-21T14:15:02.532Z,33.00
2023-05-21T14:17:30.432Z,33.43
2023-05-21T14:19:58.234Z,33.98
2023-05-21T14:22:26.056Z,32.38
2023-05-21T14:24:53.881Z,32.81
2023-05-21T14:27:21.604Z,32.68
2023-05-21T14:29:50.874Z,33.18
2023-05-21T14:32:19.288Z,33.61
2023-05-21T14:34:47.177Z,33.69
2023-05-21T14:37:14.988Z,34.06
2023-05-21T14:39:42.881Z,33.20
2023-05-21T14:42:10.670Z,33.50
2023-05-21T14:44:38.446Z,33.65
2023-05-21T14:47:07.606Z,32.71
2023-05-21T14:49:35.417Z,31.79
2023-05-21T14:52:03.203Z,28.72
2023-05-21T14:54:31.012Z,28.86
2023-05-21T14:56:58.830Z,28.31
2023-05-21T14:59:26.652Z,27.60
2023-05-21T15:01:54.484Z,27.61
2023-05-21T15:04:23.602Z,26.86
2023-05-21T15:06:51.440Z,26.49
2023-05-21T15:09:19.243Z,26.38
2023-05-21T15:11:47.015Z,27.06
2023-05-21T15:14:14.841Z,26.69
2023-05-21T15:16:42.724Z,28.63
2023-05-21T15:19:11.994Z,29.53
2023-05-21T15:21:41.153Z,30.04
2023-05-21T15:24:09.126Z,30.20
2023-05-21T15:26:36.860Z,30.54
2023-05-21T15:29:04.893Z,30.48
2023-05-21T15:31:32.674Z,30.52
2023-05-21T15:34:00.973Z,30.17
2023-05-21T15:36:28.852Z,30.69
2023-05-21T15:38:58.045Z,30.39
2023-05-21T15:41:26.151Z,29.96
2023-05-21T15:43:53.999Z,30.00
2023-05-21T15:46:21.902Z,30.66
2023-05-21T15:48:49.728Z,30.71
2023-05-21T15:51:19.557Z,31.44
2023-05-21T15:53:47.355Z,31.61
2023-05-21T15:56:16.806Z,31.24
2023-05-21T15:58:44.586Z,30.91
2023-05-21T16:01:12.476Z,31.59
2023-05-21T16:03:40.560Z,31.23
2023-05-21T16:06:10.394Z,31.26
2023-05-21T16:08:38.850Z,31.30
2023-05-21T16:11:06.799Z,31.48
2023-05-21T16:13:35.966Z,31.84
2023-05-21T16:16:03.797Z,31.79
2023-05-21T16:18:31.636Z,31.26
2023-05-21T16:20:59.494Z,30.71
2023-05-21T16:23:27.261Z,31.54
2023-05-21T16:25:55.448Z,32.15
2023-05-21T16:28:24.357Z,32.42
2023-05-21T16:30:53.755Z,32.19
2023-05-21T16:33:21.640Z,32.42
2023-05-21T16:35:49.457Z,32.82
2023-05-21T16:38:17.327Z,33.02
2023-05-21T16:40:47.183Z,32.33
2023-05-21T16:43:15.156Z,32.60
2023-05-21T16:45:44.571Z,31.81
2023-05-21T16:48:16.340Z,32.44
2023-05-21T16:50:44.642Z,31.92
2023-05-21T16:53:12.549Z,32.26
2023-05-21T16:55:40.567Z,32.37
2023-05-21T16:58:09.381Z,32.01
2023-05-21T17:00:37.356Z,31.87
2023-05-21T17:03:05.351Z,32.22
2023-05-21T17:05:34.819Z,31.68
2023-05-21T17:08:02.952Z,30.88
2023-05-21T17:10:31.821Z,30.04
2023-05-21T17:13:01.907Z,29.88
2023-05-21T17:15:34.749Z,29.60
2023-05-21T17:18:02.717Z,30.05
2023-05-21T17:20:30.671Z,30.13
2023-05-21T17:22:59.927Z,29.95
2023-05-21T17:25:27.782Z,29.97
2023-05-21T17:27:55.666Z,29.48
2023-05-21T17:30:23.547Z,28.80
2023-05-21T17:32:51.389Z,28.76
2023-05-21T17:35:19.428Z,29.18
2023-05-21T17:37:48.139Z,29.28
2023-05-21T17:40:20.272Z,28.03
2023-05-21T17:42:48.623Z,27.89
2023-05-21T17:45:16.466Z,27.29
2023-05-21T17:47:44.413Z,27.98
2023-05-21T17:50:12.320Z,27.71
2023-05-21T17:52:40.362Z,27.48
2023-05-21T17:55:08.766Z,26.30
2023-05-21T17:57:37.973Z,26.00
2023-05-21T18:00:07.011Z,25.85
2023-05-21T18:02:43.668Z,26.09
2023-05-21T18:05:11.600Z,26.38
2023-05-21T18:07:39.675Z,26.19
2023-05-21T18:10:11.171Z,26.14
2023-05-21T18:12:40.561Z,25.96
2023-05-21T18:15:09.709Z,26.30
2023-05-21T18:17:37.652Z,24.98
2023-05-21T18:20:06.449Z,24.36
2023-05-21T18:22:34.341Z,23.94
2023-05-21T18:25:02.318Z,24.01
2023-05-21T18:27:30.221Z,23.77
2023-05-21T18:30:02.415Z,23.67
2023-05-21T18:32:30.475Z,23.64
2023-05-21T18:34:58.526Z,23.80
2023-05-21T18:37:27.128Z,23.56
2023-05-21T18:39:55.001Z,24.06
2023-05-21T18:42:22.944Z,24.58
2023-05-21T18:44:52.039Z,24.81
2023-05-21T18:47:21.459Z,24.73
2023-05-21T18:49:49.350Z,23.75
2023-05-21T18:52:17.272Z,23.89
2023-05-21T18:54:45.211Z,23.98
2023-05-21T18:57:13.580Z,23.85
2023-05-21T18:59:41.507Z,23.24
2023-05-21T19:02:10.521Z,23.40
2023-05-21T19:04:39.897Z,23.40
2023-05-21T19:07:07.935Z,23.32
2023-05-21T19:09:35.738Z,23.22
2023-05-21T19:12:03.727Z,23.14
2023-05-21T19:14:31.521Z,22.95
2023-05-21T19:16:59.636Z,23.22
2023-05-21T19:19:27.844Z,23.25
2023-05-21T19:21:57.362Z,23.23
2023-05-21T19:24:25.382Z,23.09
2023-05-21T19:26:53.217Z,22.98
2023-05-21T19:29:21.478Z,23.43
2023-05-21T19:31:49.484Z,23.63
2023-05-21T19:34:17.405Z,23.35
2023-05-21T19:36:53.549Z,22.73
2023-05-21T19:39:23.283Z,21.81
2023-05-21T19:41:51.658Z,22.08
2023-05-21T19:44:19.674Z,21.50
2023-05-21T19:46:48.547Z,21.54
2023-05-21T19:49:16.432Z,22.08
2023-05-21T19:51:44.337Z,21.69
2023-05-21T19:54:12.206Z,21.43
2023-05-21T19:56:41.420Z,21.43
2023-05-21T19:59:09.310Z,21.17
2023-05-21T20:01:39.541Z,21.16
2023-05-21T20:04:07.545Z,21.66
2023-05-21T20:06:35.684Z,22.45
2023-05-21T20:09:03.566Z,21.82
2023-05-21T20:11:31.406Z,22.15
2023-05-21T20:14:02.121Z,22.26
2023-05-21T20:16:30.564Z,21.32
2023-05-21T20:18:58.460Z,21.29
2023-05-21T20:21:26.565Z,21.54
2023-05-21T20:23:54.716Z,21.05
2023-05-21T20:26:23.121Z,21.46
2023-05-21T20:28:50.966Z,22.00
2023-05-21T20:31:20.389Z,20.95
2023-05-21T20:33:50.580Z,20.65
2023-05-21T20:36:21.335Z,20.47
2023-05-21T20:38:49.305Z,20.61
2023-05-21T20:41:17.156Z,20.41
2023-05-21T20:43:45.956Z,20.20
2023-05-21T20:46:13.923Z,20.20
2023-05-21T20:48:43.614Z,20.86
2023-05-21T20:51:12.185Z,20.59
2023-05-21T20:53:40.762Z,21.06
2023-05-21T20:56:11.703Z,21.74
2023-05-21T20:58:39.896Z,22.33
2023-05-21T21:01:10.617Z,22.48
2023-05-21T21:03:41.135Z,22.64
2023-05-21T21:06:10.533Z,22.45
2023-05-21T21:08:40.142Z,21.74
2023-05-21T21:11:09.086Z,21.63
2023-05-21T21:13:37.247Z,21.98
2023-05-21T21:16:05.979Z,21.48
2023-05-21T21:18:33.970Z,21.38
2023-05-21T21:21:01.978Z,19.92
2023-05-21T21:23:31.161Z,19.40
2023-05-21T21:25:59.051Z,19.48
2023-05-21T21:28:26.842Z,19.52
2023-05-21T21:30:54.743Z,20.44
2023-05-21T21:33:24.303Z,19.42
2023-05-21T21:35:52.447Z,19.12
2023-05-21T21:38:20.380Z,19.23
2023-05-21T21:40:49.637Z,18.87
2023-05-21T21:43:17.407Z,18.80
2023-05-21T21:45:45.517Z,19.08
2023-05-21T21:48:13.340Z,18.68
2023-05-21T21:50:41.284Z,19.20
2023-05-21T21:53:09.844Z,19.83
2023-05-21T21:55:37.900Z,20.01
2023-05-21T21:58:07.469Z,20.29
2023-05-21T22:00:35.479Z,19.75
2023-05-21T22:03:03.331Z,19.67
2023-05-21T22:05:32.728Z,19.85
2023-05-21T22:08:00.634Z,18.82
2023-05-21T22:10:28.408Z,18.86
2023-05-21T22:12:56.341Z,19.71
2023-05-21T22:15:28.488Z,20.58
2023-05-21T22:17:56.529Z,20.88
2023-05-21T22:20:25.961Z,21.07
2023-05-21T22:22:55.294Z,20.31
2023-05-21T22:25:23.392Z,18.89
2023-05-21T22:27:51.825Z,17.87
2023-05-21T22:30:20.012Z,17.65
2023-05-21T22:32:49.386Z,18.18
2023-05-21T22:35:17.350Z,18.62
2023-05-21T22:37:45.114Z,18.41
2023-05-21T22:40:13.392Z,18.33
2023-05-21T22:42:41.326Z,19.13
2023-05-21T22:45:09.867Z,18.23
2023-05-21T22:47:39.561Z,17.68
2023-05-21T22:50:11.090Z,17.38
2023-05-21T22:52:39.263Z,16.84
2023-05-21T22:55:09.498Z,17.78
2023-05-21T22:57:37.398Z,18.57
2023-05-21T23:00:07.311Z,19.37
2023-05-21T23:02:35.279Z,19.81
2023-05-21T23:05:03.263Z,19.59
2023-05-21T23:07:32.680Z,19.31
2023-05-21T23:10:00.440Z,19.75
2023-05-21T23:12:28.248Z,19.67
2023-05-21T23:14:56.140Z,19.89
2023-05-21T23:17:23.962Z,20.24
2023-05-21T23:19:52.442Z,19.79
2023-05-21T23:22:20.461Z,19.87
2023-05-21T23:24:49.572Z,19.14
2023-05-21T23:27:17.379Z,18.48
2023-05-21T23:29:45.123Z,19.36
2023-05-21T23:32:12.993Z,19.42
2023-05-21T23:34:41.921Z,19.66
2023-05-21T23:37:09.736Z,19.97
2023-05-21T23:39:37.677Z,20.11
2023-05-21T23:42:07.586Z,19.85
2023-05-21T23:44:35.345Z,19.52
2023-05-21T23:47:03.077Z,19.64
2023-05-21T23:49:30.825Z,19.66
2023-05-21T23:51:59.413Z,19.56
2023-05-21T23:54:27.302Z,19.68
2023-05-21T23:56:55.086Z,19.84
2023-05-21T23:59:24.255Z,19.69
